Time;durP1;ratioP1;P1;durP2;ratioP2;P2;SDS_P1;SDS_P2;PMS_P1;PMS_P2;Temp;Humidity;BMP_temperature;BMP_pressure;BME280_temperature;BME280_humidity;BME280_pressure;Samples;Min_cycle;Max_cycle;Signal;HPM_P1;HPM_P2
2023/11/23 00:01:14;;;;;;;6.20;5.53;;;;;;;;;;5045596;28;20437;-56
2023/11/23 00:03:43;;;;;;;7.35;6.10;;;;;;;;;;5035644;28;20120;-58
2023/11/23 00:06:11;;;;;;;6.70;5.43;;;;;;;;;;5046936;28;20045;-57
2023/11/23 00:08:41;;;;;;;5.72;5.22;;;;;;;;;;5040412;28;20046;-57
2023/11/23 00:11:10;;;;;;;6.82;5.95;;;;;;;;;;5039459;28;20041;-57
2023/11/23 00:13:40;;;;;;;6.78;5.72;;;;;;;;;;5048466;28;20103;-57
2023/11/23 00:16:09;;;;;;;6.72;5.88;;;;;;;;;;5047026;28;20080;-57
2023/11/23 00:18:37;;;;;;;7.90;5.72;;;;;;;;;;5048782;28;20103;-58
2023/11/23 00:21:06;;;;;;;5.95;5.35;;;;;;;;;;5042379;28;20040;-57
2023/11/23 00:23:34;;;;;;;7.93;6.25;;;;;;;;;;5048674;28;20498;-59
2023/11/23 00:26:03;;;;;;;7.45;5.93;;;;;;;;;;5036059;28;20037;-56
2023/11/23 00:28:32;;;;;;;6.50;5.78;;;;;;;;;;5045611;28;20045;-58
2023/11/23 00:31:01;;;;;;;7.68;6.18;;;;;;;;;;5042180;28;20106;-57
2023/11/23 00:33:30;;;;;;;7.00;6.30;;;;;;;;;;5049064;28;20052;-58
2023/11/23 00:35:58;;;;;;;7.45;6.50;;;;;;;;;;5047014;28;20052;-57
2023/11/23 00:38:27;;;;;;;7.45;6.55;;;;;;;;;;5048473;28;20494;-58
2023/11/23 00:40:55;;;;;;;7.45;6.47;;;;;;;;;;5044959;28;20107;-58
2023/11/23 00:43:24;;;;;;;7.15;6.18;;;;;;;;;;5046191;28;20041;-57
2023/11/23 00:45:52;;;;;;;8.68;7.03;;;;;;;;;;5043452;28;20048;-56
2023/11/23 00:48:22;;;;;;;9.23;6.97;;;;;;;;;;5048068;28;20146;-57
2023/11/23 00:50:51;;;;;;;6.70;5.78;;;;;;;;;;5047280;28;20044;-57
2023/11/23 00:53:19;;;;;;;7.57;6.35;;;;;;;;;;5048240;28;20052;-57
2023/11/23 00:55:48;;;;;;;7.78;6.97;;;;;;;;;;5043559;28;20106;-56
2023/11/23 00:58:17;;;;;;;8.18;6.28;;;;;;;;;;5040813;28;20045;-57
2023/11/23 01:00:45;;;;;;;7.25;6.13;;;;;;;;;;5044675;28;20115;-56
2023/11/23 01:03:14;;;;;;;8.40;6.90;;;;;;;;;;5036898;28;20513;-58
2023/11/23 01:05:43;;;;;;;8.45;6.93;;;;;;;;;;5048569;28;20061;-57
2023/11/23 01:08:14;;;;;;;10.18;7.20;;;;;;;;;;5047136;28;20052;-56
2023/11/23 01:10:43;;;;;;;8.38;6.57;;;;;;;;;;5046122;28;20044;-58
2023/11/23 01:13:12;;;;;;;7.38;6.57;;;;;;;;;;5043699;28;20056;-56
2023/11/23 01:15:40;;;;;;;6.28;5.68;;;;;;;;;;5036469;28;20053;-57
2023/11/23 01:18:09;;;;;;;8.52;5.80;;;;;;;;;;5046160;28;20516;-57
2023/11/23 01:20:37;;;;;;;6.35;5.75;;;;;;;;;;5043928;28;20487;-57
2023/11/23 01:23:07;;;;;;;6.40;5.70;;;;;;;;;;5045376;28;20063;-57
2023/11/23 01:25:36;;;;;;;6.68;5.43;;;;;;;;;;5040797;28;20049;-57
2023/11/23 01:28:04;;;;;;;6.32;5.50;;;;;;;;;;5043275;28;20045;-56
2023/11/23 01:30:32;;;;;;;7.05;5.95;;;;;;;;;;5038550;28;20103;-57
2023/11/23 01:33:01;;;;;;;6.30;5.70;;;;;;;;;;5032299;28;20477;-56
2023/11/23 01:35:29;;;;;;;7.88;6.03;;;;;;;;;;5039923;28;20124;-57
2023/11/23 01:37:58;;;;;;;8.20;6.03;;;;;;;;;;5045650;28;20044;-57
2023/11/23 01:40:27;;;;;;;8.27;6.47;;;;;;;;;;5046543;28;20045;-57
2023/11/23 01:43:01;;;;;;;8.93;6.03;;;;;;;;;;5044563;28;20045;-57
2023/11/23 01:45:30;;;;;;;8.10;6.57;;;;;;;;;;5046011;28;20057;-57
2023/11/23 01:47:58;;;;;;;6.53;5.72;;;;;;;;;;5044870;28;20426;-59
2023/11/23 01:50:27;;;;;;;6.35;5.63;;;;;;;;;;5046188;28;20139;-57
2023/11/23 01:52:55;;;;;;;7.60;6.10;;;;;;;;;;5037371;28;20061;-56
2023/11/23 01:55:24;;;;;;;5.97;5.38;;;;;;;;;;5047188;28;20103;-57
2023/11/23 01:57:55;;;;;;;6.13;5.15;;;;;;;;;;5045364;28;20142;-58
2023/11/23 02:00:25;;;;;;;7.22;5.70;;;;;;;;;;5045885;28;20052;-56
2023/11/23 02:02:53;;;;;;;6.65;5.80;;;;;;;;;;5035343;28;20045;-56
2023/11/23 02:05:23;;;;;;;6.55;5.35;;;;;;;;;;5044683;28;20037;-56
2023/11/23 02:07:52;;;;;;;6.22;5.15;;;;;;;;;;5046575;28;20110;-56
2023/11/23 02:10:20;;;;;;;7.15;5.60;;;;;;;;;;5046500;28;20103;-57
2023/11/23 02:12:50;;;;;;;6.25;5.65;;;;;;;;;;5044925;28;20045;-58
2023/11/23 02:15:20;;;;;;;6.55;5.90;;;;;;;;;;5037934;28;20049;-57
2023/11/23 02:17:48;;;;;;;6.25;5.65;;;;;;;;;;5040547;28;20057;-57
2023/11/23 02:20:16;;;;;;;5.72;5.07;;;;;;;;;;5047549;28;20044;-57
2023/11/23 02:22:45;;;;;;;6.70;5.43;;;;;;;;;;5034187;28;20072;-57
2023/11/23 02:25:14;;;;;;;6.68;5.97;;;;;;;;;;5045626;28;20037;-57
2023/11/23 02:27:43;;;;;;;5.90;5.30;;;;;;;;;;5048960;28;20498;-57
2023/11/23 02:30:12;;;;;;;5.35;4.85;;;;;;;;;;5042420;28;20084;-58
2023/11/23 02:32:40;;;;;;;5.72;5.13;;;;;;;;;;5041120;28;20171;-57
2023/11/23 02:35:09;;;;;;;5.95;5.32;;;;;;;;;;5046876;28;20053;-58
2023/11/23 02:37:38;;;;;;;6.68;5.60;;;;;;;;;;5045973;28;20088;-57
2023/11/23 02:40:07;;;;;;;6.30;5.68;;;;;;;;;;5033029;28;20041;-57
2023/11/23 02:42:38;;;;;;;5.55;5.03;;;;;;;;;;5042601;28;20102;-57
2023/11/23 02:45:10;;;;;;;;;;;;;;;;;;5050352;28;20053;-57
2023/11/23 02:47:38;;;;;;;6.43;5.35;;;;;;;;;;5046013;28;20011;-58
2023/11/23 02:50:07;;;;;;;6.60;5.35;;;;;;;;;;5050241;28;20554;-57
2023/11/23 02:52:35;;;;;;;5.43;4.93;;;;;;;;;;5050098;28;20045;-58
2023/11/23 02:55:04;;;;;;;6.65;5.63;;;;;;;;;;5049744;28;20118;-57
2023/11/23 02:57:32;;;;;;;7.32;5.70;;;;;;;;;;5038079;28;20095;-57
2023/11/23 03:00:02;;;;;;;6.65;5.80;;;;;;;;;;5048860;28;20114;-57
2023/11/23 03:02:31;;;;;;;7.57;5.85;;;;;;;;;;5044717;28;20048;-57
2023/11/23 03:05:00;;;;;;;8.68;6.47;;;;;;;;;;5050356;28;20461;-58
2023/11/23 03:07:28;;;;;;;7.10;6.10;;;;;;;;;;5040805;28;20049;-57
2023/11/23 03:09:57;;;;;;;6.35;5.40;;;;;;;;;;5049145;28;20107;-57
2023/11/23 03:12:25;;;;;;;7.97;6.50;;;;;;;;;;5043469;28;20049;-57
2023/11/23 03:14:54;;;;;;;5.78;5.18;;;;;;;;;;5043766;28;20140;-57
2023/11/23 03:17:23;;;;;;;6.88;5.72;;;;;;;;;;5041440;28;20091;-58
2023/11/23 03:19:52;;;;;;;6.82;5.53;;;;;;;;;;5049275;28;20413;-57
2023/11/23 03:22:21;;;;;;;6.28;5.30;;;;;;;;;;5049744;28;20052;-57
2023/11/23 03:24:51;;;;;;;6.32;5.55;;;;;;;;;;5049516;28;20132;-58
2023/11/23 03:27:20;;;;;;;6.40;5.80;;;;;;;;;;5046515;28;20056;-57
2023/11/23 03:29:48;;;;;;;6.32;5.70;;;;;;;;;;5040299;28;20056;-57
2023/11/23 03:32:17;;;;;;;5.55;4.85;;;;;;;;;;5040113;28;20041;-58
2023/11/23 03:34:47;;;;;;;6.70;4.97;;;;;;;;;;5048858;28;20494;-57
2023/11/23 03:37:15;;;;;;;7.70;6.22;;;;;;;;;;5047111;28;20045;-57
2023/11/23 03:39:44;;;;;;;6.22;5.53;;;;;;;;;;5044489;28;20076;-58
2023/11/23 03:42:13;;;;;;;6.13;5.28;;;;;;;;;;5039652;28;20111;-58
2023/11/23 03:44:42;;;;;;;6.82;5.72;;;;;;;;;;5049504;28;20057;-57
2023/11/23 03:47:10;;;;;;;6.72;5.53;;;;;;;;;;5046139;28;20079;-57
2023/11/23 03:49:39;;;;;;;7.32;5.55;;;;;;;;;;5045828;28;20452;-57
2023/11/23 03:52:08;;;;;;;6.10;5.40;;;;;;;;;;5045211;28;20049;-58
2023/11/23 03:54:37;;;;;;;5.70;5.10;;;;;;;;;;5048670;28;20450;-57
2023/11/23 03:57:05;;;;;;;6.35;5.68;;;;;;;;;;5039956;28;20132;-57
2023/11/23 03:59:34;;;;;;;6.05;5.22;;;;;;;;;;5044160;28;20051;-57
2023/11/23 04:02:02;;;;;;;6.72;5.70;;;;;;;;;;5036940;28;20046;-57
2023/11/23 04:04:31;;;;;;;6.25;5.35;;;;;;;;;;5047757;28;20056;-57
2023/11/23 04:07:00;;;;;;;5.90;5.30;;;;;;;;;;5042249;28;20045;-57
2023/11/23 04:09:30;;;;;;;8.18;5.30;;;;;;;;;;5046462;28;20545;-58
2023/11/23 04:11:58;;;;;;;5.95;5.35;;;;;;;;;;5042072;28;20127;-56
2023/11/23 04:14:27;;;;;;;7.03;5.28;;;;;;;;;;5044359;28;20478;-58
2023/11/23 04:16:56;;;;;;;6.07;5.47;;;;;;;;;;5047143;28;20064;-58
2023/11/23 04:19:25;;;;;;;6.70;5.70;;;;;;;;;;5037705;28;20143;-57
2023/11/23 04:21:53;;;;;;;5.60;5.10;;;;;;;;;;5039544;28;20045;-60
2023/11/23 04:24:22;;;;;;;6.40;5.55;;;;;;;;;;5047485;28;20536;-57
2023/11/23 04:26:52;;;;;;;7.72;5.55;;;;;;;;;;5041363;28;20495;-57
2023/11/23 04:29:20;;;;;;;6.57;5.88;;;;;;;;;;5035378;28;20307;-63
2023/11/23 04:31:49;;;;;;;6.40;5.50;;;;;;;;;;5046376;28;20522;-60
2023/11/23 04:34:17;;;;;;;6.47;5.13;;;;;;;;;;5048642;28;20049;-57
2023/11/23 04:36:46;;;;;;;5.47;4.93;;;;;;;;;;5045709;28;20504;-57
2023/11/23 04:39:14;;;;;;;6.65;5.55;;;;;;;;;;5044962;28;20045;-57
2023/11/23 04:41:42;;;;;;;6.18;5.57;;;;;;;;;;5044927;28;20049;-57
2023/11/23 04:44:12;;;;;;;6.20;4.35;;;;;;;;;;5045561;28;20162;-58
2023/11/23 04:46:41;;;;;;;5.45;4.95;;;;;;;;;;5038827;28;20049;-58
2023/11/23 04:49:09;;;;;;;6.80;5.63;;;;;;;;;;5042159;28;20048;-57
2023/11/23 04:51:38;;;;;;;5.78;5.03;;;;;;;;;;5040411;28;20571;-57
2023/11/23 04:54:06;;;;;;;5.72;5.13;;;;;;;;;;5036977;28;20094;-57
2023/11/23 04:56:34;;;;;;;5.00;4.50;;;;;;;;;;5047682;28;20110;-57
2023/11/23 04:59:03;;;;;;;5.07;4.57;;;;;;;;;;5048172;28;20107;-57
2023/11/23 05:01:33;;;;;;;6.05;4.88;;;;;;;;;;5044658;28;20485;-57
2023/11/23 05:04:01;;;;;;;4.80;4.30;;;;;;;;;;5036634;28;20355;-57
2023/11/23 05:06:33;;;;;;;5.57;5.07;;;;;;;;;;5034700;28;20069;-58
2023/11/23 05:09:01;;;;;;;5.57;5.07;;;;;;;;;;5040504;28;20579;-58
2023/11/23 05:11:30;;;;;;;6.45;5.20;;;;;;;;;;5044506;28;20517;-58
2023/11/23 05:13:58;;;;;;;5.47;4.97;;;;;;;;;;5041863;28;20045;-57
2023/11/23 05:16:26;;;;;;;6.70;5.45;;;;;;;;;;5040382;28;20060;-57
2023/11/23 05:18:56;;;;;;;7.22;5.88;;;;;;;;;;5039952;28;20053;-57
2023/11/23 05:21:25;;;;;;;5.22;4.68;;;;;;;;;;5041436;28;20151;-58
2023/11/23 05:23:53;;;;;;;6.07;5.25;;;;;;;;;;5047773;28;20049;-58
2023/11/23 05:26:22;;;;;;;4.93;4.47;;;;;;;;;;5044894;28;20045;-57
2023/11/23 05:28:50;;;;;;;5.32;4.82;;;;;;;;;;5041196;28;20059;-56
2023/11/23 05:31:18;;;;;;;5.20;4.65;;;;;;;;;;5040361;28;20064;-58
2023/11/23 05:33:47;;;;;;;4.88;4.40;;;;;;;;;;5033651;28;20052;-57
2023/11/23 05:36:17;;;;;;;6.28;5.68;;;;;;;;;;5037349;28;20438;-58
2023/11/23 05:38:45;;;;;;;4.80;4.40;;;;;;;;;;5044423;28;20057;-56
2023/11/23 05:41:14;;;;;;;5.60;5.10;;;;;;;;;;5045500;28;20124;-57
2023/11/23 05:43:42;;;;;;;6.40;5.15;;;;;;;;;;5039620;28;20052;-58
2023/11/23 05:46:10;;;;;;;4.97;4.47;;;;;;;;;;5047255;28;20077;-58
2023/11/23 05:48:42;;;;;;;6.60;5.95;;;;;;;;;;5043969;28;20053;-57
2023/11/23 05:51:10;;;;;;;5.00;4.45;;;;;;;;;;5046082;28;20348;-57
2023/11/23 05:53:41;;;;;;;12.30;5.72;;;;;;;;;;5042314;28;20055;-59
2023/11/23 05:56:10;;;;;;;4.78;4.38;;;;;;;;;;5041963;28;20052;-57
2023/11/23 05:58:39;;;;;;;5.25;4.70;;;;;;;;;;5040145;28;20102;-58
2023/11/23 06:01:07;;;;;;;5.47;4.95;;;;;;;;;;5044572;28;20193;-59
2023/11/23 06:03:41;;;;;;;5.65;5.15;;;;;;;;;;5040021;28;20094;-57
2023/11/23 06:06:18;;;;;;;6.10;5.50;;;;;;;;;;5040383;28;20051;-57
2023/11/23 06:08:49;;;;;;;5.30;4.80;;;;;;;;;;5050001;28;20055;-58
2023/11/23 06:11:18;;;;;;;5.85;5.25;;;;;;;;;;5039614;28;20060;-57
2023/11/23 06:13:47;;;;;;;5.43;4.93;;;;;;;;;;5044103;28;20049;-59
2023/11/23 06:16:15;;;;;;;6.35;5.45;;;;;;;;;;5047739;28;20090;-57
2023/11/23 06:18:44;;;;;;;5.65;5.10;;;;;;;;;;5041609;28;20135;-57
2023/11/23 06:21:13;;;;;;;5.45;4.78;;;;;;;;;;5039925;28;20103;-57
2023/11/23 06:23:41;;;;;;;5.40;4.90;;;;;;;;;;5048927;28;20064;-58
2023/11/23 06:26:11;;;;;;;5.68;5.07;;;;;;;;;;5044247;28;20446;-58
2023/11/23 06:28:39;;;;;;;5.93;4.93;;;;;;;;;;5045788;28;20134;-60
2023/11/23 06:31:08;;;;;;;5.72;5.13;;;;;;;;;;5047333;28;20041;-57
2023/11/23 06:33:36;;;;;;;5.22;4.72;;;;;;;;;;5049765;28;20048;-57
2023/11/23 06:36:05;;;;;;;5.72;5.10;;;;;;;;;;5043329;28;20539;-58
2023/11/23 06:38:34;;;;;;;6.70;5.68;;;;;;;;;;5034984;28;20049;-57
2023/11/23 06:41:02;;;;;;;6.53;5.65;;;;;;;;;;5045049;28;20055;-57
2023/11/23 06:43:32;;;;;;;5.93;5.32;;;;;;;;;;5035764;28;20081;-57
2023/11/23 06:46:01;;;;;;;6.32;5.10;;;;;;;;;;5039932;28;20615;-56
2023/11/23 06:48:29;;;;;;;6.63;5.18;;;;;;;;;;5037277;28;20140;-60
2023/11/23 06:50:58;;;;;;;6.38;4.97;;;;;;;;;;5043130;28;20044;-61
2023/11/23 06:53:30;;;;;;;6.03;4.95;;;;;;;;;;5038701;28;20049;-61
2023/11/23 06:56:12;;;;;;;5.78;5.10;;;;;;;;;;5047550;28;20049;-59
2023/11/23 06:58:42;;;;;;;5.13;4.60;;;;;;;;;;5045820;28;20073;-59
2023/11/23 07:01:11;;;;;;;6.97;5.95;;;;;;;;;;5036180;28;20069;-59
2023/11/23 07:03:41;;;;;;;5.43;4.93;;;;;;;;;;5049216;28;20129;-58
2023/11/23 07:06:10;;;;;;;5.68;5.10;;;;;;;;;;5050670;28;20095;-60
2023/11/23 07:08:40;;;;;;;6.07;5.28;;;;;;;;;;5036687;28;20095;-61
2023/11/23 07:11:09;;;;;;;6.90;5.53;;;;;;;;;;5049311;28;20076;-60
2023/11/23 07:13:37;;;;;;;5.78;5.18;;;;;;;;;;5041523;28;20045;-60
2023/11/23 07:16:09;;;;;;;6.60;5.20;;;;;;;;;;5039977;28;20045;-60
2023/11/23 07:18:37;;;;;;;7.55;6.15;;;;;;;;;;5047003;28;20054;-59
2023/11/23 07:21:06;;;;;;;6.25;5.50;;;;;;;;;;5043536;28;20628;-60
2023/11/23 07:23:36;;;;;;;6.05;5.45;;;;;;;;;;5045570;28;20055;-61
2023/11/23 07:26:04;;;;;;;8.18;5.18;;;;;;;;;;5050093;28;20056;-60
2023/11/23 07:28:33;;;;;;;6.53;5.32;;;;;;;;;;5041222;28;20045;-58
2023/11/23 07:31:02;;;;;;;6.80;5.32;;;;;;;;;;5044375;28;20061;-60
2023/11/23 07:33:38;;;;;;;5.55;5.00;;;;;;;;;;5049942;28;20053;-60
2023/11/23 07:36:07;;;;;;;5.65;5.07;;;;;;;;;;5045952;28;20041;-59
2023/11/23 07:38:36;;;;;;;5.18;4.68;;;;;;;;;;5048246;28;20049;-62
2023/11/23 07:41:06;;;;;;;6.32;4.93;;;;;;;;;;5038709;28;20056;-60
2023/11/23 07:43:35;;;;;;;4.90;4.45;;;;;;;;;;5049883;28;20048;-59
2023/11/23 07:46:04;;;;;;;5.60;5.10;;;;;;;;;;5042348;28;20045;-66
2023/11/23 07:48:32;;;;;;;6.80;5.22;;;;;;;;;;5042307;28;20795;-63
2023/11/23 07:51:02;;;;;;;6.03;5.03;;;;;;;;;;5039874;28;20070;-60
2023/11/23 07:53:31;;;;;;;5.60;4.97;;;;;;;;;;5042613;28;20119;-59
2023/11/23 07:55:59;;;;;;;6.07;5.32;;;;;;;;;;5046532;28;20095;-65
2023/11/23 07:58:28;;;;;;;6.57;5.15;;;;;;;;;;5049208;28;20102;-63
2023/11/23 08:00:57;;;;;;;5.82;4.68;;;;;;;;;;5037760;28;20042;-60
2023/11/23 08:03:25;;;;;;;6.00;5.35;;;;;;;;;;5049284;28;20044;-63
2023/11/23 08:05:54;;;;;;;5.50;4.57;;;;;;;;;;5040161;28;20427;-60
2023/11/23 08:08:24;;;;;;;5.95;5.35;;;;;;;;;;5038748;28;20041;-59
2023/11/23 08:10:53;;;;;;;5.22;4.72;;;;;;;;;;5047529;28;20552;-61
2023/11/23 08:13:21;;;;;;;5.50;4.63;;;;;;;;;;5049239;28;20049;-60
2023/11/23 08:15:49;;;;;;;5.30;4.68;;;;;;;;;;5043979;28;20222;-59
2023/11/23 08:18:18;;;;;;;4.68;4.28;;;;;;;;;;5038746;28;20060;-60
2023/11/23 08:20:47;;;;;;;5.65;5.03;;;;;;;;;;5040778;28;20057;-60
2023/11/23 08:23:15;;;;;;;5.80;4.75;;;;;;;;;;5045163;28;20056;-59
2023/11/23 08:25:47;;;;;;;5.20;4.53;;;;;;;;;;5045120;28;20065;-59
2023/11/23 08:28:17;;;;;;;6.30;4.95;;;;;;;;;;5042090;28;20073;-61
2023/11/23 08:30:46;;;;;;;6.95;4.53;;;;;;;;;;5043601;28;20107;-60
2023/11/23 08:33:15;;;;;;;5.15;4.65;;;;;;;;;;5044816;28;20518;-59
2023/11/23 08:35:44;;;;;;;4.65;4.25;;;;;;;;;;5036350;28;20049;-59
2023/11/23 08:38:13;;;;;;;5.63;4.65;;;;;;;;;;5044732;28;20057;-61
2023/11/23 08:40:42;;;;;;;4.63;4.07;;;;;;;;;;5048809;28;20045;-58
2023/11/23 08:43:12;;;;;;;5.53;4.47;;;;;;;;;;5049111;28;20045;-58
2023/11/23 08:45:40;;;;;;;4.82;4.35;;;;;;;;;;5048260;28;20045;-61
2023/11/23 08:48:09;;;;;;;4.90;4.40;;;;;;;;;;5048120;28;20060;-60
2023/11/23 08:50:38;;;;;;;4.78;4.38;;;;;;;;;;5048854;28;20053;-60
2023/11/23 08:53:06;;;;;;;5.45;4.50;;;;;;;;;;5048572;28;20548;-62
2023/11/23 08:55:34;;;;;;;4.88;4.47;;;;;;;;;;5043855;28;20052;-61
2023/11/23 08:58:03;;;;;;;4.97;4.47;;;;;;;;;;5038251;28;20041;-60
2023/11/23 09:00:33;;;;;;;4.55;4.03;;;;;;;;;;5039256;28;20060;-60
2023/11/23 09:03:04;;;;;;;5.35;4.80;;;;;;;;;;5048143;28;20041;-60
2023/11/23 09:05:33;;;;;;;4.90;4.35;;;;;;;;;;5047864;28;20478;-59
2023/11/23 09:08:06;;;;;;;4.57;4.22;;;;;;;;;;5044393;28;20048;-59
2023/11/23 09:10:34;;;;;;;4.90;4.47;;;;;;;;;;5048491;28;20428;-59
2023/11/23 09:13:03;;;;;;;5.32;4.20;;;;;;;;;;5046127;28;20053;-60
2023/11/23 09:15:34;;;;;;;4.82;4.43;;;;;;;;;;5048057;28;20060;-60
2023/11/23 09:18:03;;;;;;;4.28;3.90;;;;;;;;;;5047467;28;20486;-60
2023/11/23 09:20:31;;;;;;;4.90;4.20;;;;;;;;;;5048608;28;20122;-60
2023/11/23 09:23:03;;;;;;;4.07;3.67;;;;;;;;;;5048342;28;20041;-60
2023/11/23 09:25:33;;;;;;;4.90;4.40;;;;;;;;;;5046464;28;20084;-60
2023/11/23 09:28:02;;;;;;;4.75;4.30;;;;;;;;;;5041028;28;20055;-59
2023/11/23 09:30:31;;;;;;;4.13;3.72;;;;;;;;;;5040416;28;20162;-60
2023/11/23 09:33:01;;;;;;;4.18;3.78;;;;;;;;;;5037613;28;20088;-59
2023/11/23 09:35:29;;;;;;;5.13;4.68;;;;;;;;;;5048998;28;20049;-59
2023/11/23 09:37:58;;;;;;;4.72;4.30;;;;;;;;;;5052357;28;20102;-61
2023/11/23 09:40:29;;;;;;;4.60;4.18;;;;;;;;;;5052643;28;20355;-62
2023/11/23 09:42:58;;;;;;;4.72;4.22;;;;;;;;;;5046499;28;20049;-60
2023/11/23 09:45:26;;;;;;;4.78;4.28;;;;;;;;;;5051998;28;20056;-59
2023/11/23 09:47:56;;;;;;;4.70;4.22;;;;;;;;;;5049907;28;20080;-59
2023/11/23 09:50:28;;;;;;;4.45;4.05;;;;;;;;;;5052223;28;20049;-61
2023/11/23 09:53:01;;;;;;;4.95;4.45;;;;;;;;;;5048982;28;20049;-60
2023/11/23 09:55:30;;;;;;;5.60;4.85;;;;;;;;;;5052183;28;20109;-59
2023/11/23 09:57:59;;;;;;;4.45;4.00;;;;;;;;;;5052250;28;20584;-60
2023/11/23 10:00:27;;;;;;;4.85;4.30;;;;;;;;;;5052423;28;20143;-61
2023/11/23 10:02:56;;;;;;;5.38;4.00;;;;;;;;;;5044144;28;20497;-61
2023/11/23 10:05:27;;;;;;;4.60;4.20;;;;;;;;;;5051861;28;20049;-60
2023/11/23 10:07:56;;;;;;;4.65;4.25;;;;;;;;;;5051240;28;20041;-59
2023/11/23 10:10:27;;;;;;;4.75;4.25;;;;;;;;;;5036574;28;20057;-59
2023/11/23 10:12:55;;;;;;;4.95;4.43;;;;;;;;;;5048202;28;20094;-59
2023/11/23 10:15:26;;;;;;;3.78;3.45;;;;;;;;;;5042579;28;20053;-59
2023/11/23 10:17:56;;;;;;;5.25;4.53;;;;;;;;;;5039697;28;20075;-59
2023/11/23 10:20:26;;;;;;;5.63;5.07;;;;;;;;;;5045129;28;20045;-59
2023/11/23 10:22:57;;;;;;;5.15;4.57;;;;;;;;;;5050097;28;20498;-59
2023/11/23 10:25:31;;;;;;;5.65;5.00;;;;;;;;;;5051666;28;20433;-60
2023/11/23 10:28:00;;;;;;;4.32;3.92;;;;;;;;;;5049880;28;20065;-61
2023/11/23 10:30:29;;;;;;;5.55;4.68;;;;;;;;;;5050992;28;20048;-60
2023/11/23 10:32:57;;;;;;;6.20;4.40;;;;;;;;;;5050442;28;20131;-61
2023/11/23 10:35:32;;;;;;;4.80;4.35;;;;;;;;;;5046562;28;20386;-61
2023/11/23 10:38:02;;;;;;;4.70;4.30;;;;;;;;;;5045169;28;20053;-61
2023/11/23 10:40:31;;;;;;;5.60;4.53;;;;;;;;;;5051236;28;20118;-59
2023/11/23 10:43:01;;;;;;;5.18;4.68;;;;;;;;;;5051111;28;20282;-60
2023/11/23 10:45:30;;;;;;;5.50;4.65;;;;;;;;;;5040395;28;20472;-61
2023/11/23 10:48:03;;;;;;;5.32;4.10;;;;;;;;;;5037425;28;20056;-60
2023/11/23 10:50:33;;;;;;;4.82;4.38;;;;;;;;;;5046915;28;20147;-61
2023/11/23 10:53:03;;;;;;;4.72;4.32;;;;;;;;;;5050765;28;20495;-61
2023/11/23 10:55:32;;;;;;;4.40;4.00;;;;;;;;;;5048347;28;20048;-61
2023/11/23 10:58:04;;;;;;;4.57;4.18;;;;;;;;;;5050633;28;20148;-59
2023/11/23 11:00:32;;;;;;;4.70;4.30;;;;;;;;;;5045726;28;20331;-62
2023/11/23 11:03:01;;;;;;;3.97;3.63;;;;;;;;;;5041079;28;20482;-59
2023/11/23 11:05:30;;;;;;;4.28;3.88;;;;;;;;;;5030342;28;20502;-59
2023/11/23 11:08:03;;;;;;;4.75;4.13;;;;;;;;;;5047857;28;20482;-60
2023/11/23 11:10:48;;;;;;;4.05;3.72;;;;;;;;;;5049311;28;20044;-59
2023/11/23 11:13:17;;;;;;;4.10;3.80;;;;;;;;;;5046818;28;20049;-60
2023/11/23 11:15:52;;;;;;;5.38;3.88;;;;;;;;;;5050440;28;20442;-59
2023/11/23 11:18:25;;;;;;;4.35;3.70;;;;;;;;;;5035346;28;20084;-59
2023/11/23 11:21:00;;;;;;;4.63;3.70;;;;;;;;;;5050880;28;20489;-60
2023/11/23 11:23:39;;;;;;;5.07;4.55;;;;;;;;;;5037033;28;20049;-61
2023/11/23 11:26:10;;;;;;;3.67;3.35;;;;;;;;;;5049806;28;20575;-62
2023/11/23 11:28:39;;;;;;;4.30;3.90;;;;;;;;;;5044446;28;20451;-60
2023/11/23 11:31:08;;;;;;;6.07;3.88;;;;;;;;;;5050360;28;20053;-60
2023/11/23 11:33:38;;;;;;;4.22;3.83;;;;;;;;;;5045584;28;20445;-60
2023/11/23 11:36:08;;;;;;;4.03;3.72;;;;;;;;;;5050084;28;20053;-61
2023/11/23 11:38:37;;;;;;;3.90;3.60;;;;;;;;;;5048996;28;20125;-62
2023/11/23 11:41:06;;;;;;;5.70;3.78;;;;;;;;;;5050079;28;20045;-59
2023/11/23 11:43:36;;;;;;;3.50;3.28;;;;;;;;;;5050026;28;20045;-59
2023/11/23 11:46:06;;;;;;;4.57;4.18;;;;;;;;;;5038011;28;20061;-59
2023/11/23 11:48:35;;;;;;;4.00;3.60;;;;;;;;;;5039617;28;20502;-61
2023/11/23 11:51:05;;;;;;;4.55;4.15;;;;;;;;;;5044480;28;20068;-60
2023/11/23 11:53:33;;;;;;;5.53;5.03;;;;;;;;;;5034520;28;20544;-59
2023/11/23 11:56:03;;;;;;;4.72;4.00;;;;;;;;;;5037958;28;20502;-59
2023/11/23 11:58:32;;;;;;;4.72;4.25;;;;;;;;;;5048282;28;20502;-60
2023/11/23 12:01:01;;;;;;;3.85;3.55;;;;;;;;;;5049169;28;20068;-60
2023/11/23 12:03:30;;;;;;;4.38;3.90;;;;;;;;;;5047747;28;20049;-60
2023/11/23 12:05:58;;;;;;;5.22;4.28;;;;;;;;;;5048611;28;20049;-61
2023/11/23 12:08:33;;;;;;;4.68;4.00;;;;;;;;;;5049106;28;20052;-60
2023/11/23 12:11:02;;;;;;;4.13;3.72;;;;;;;;;;5044733;28;20564;-59
2023/11/23 12:13:32;;;;;;;4.60;3.47;;;;;;;;;;5049362;28;20140;-59
2023/11/23 12:16:02;;;;;;;3.60;3.30;;;;;;;;;;5037549;28;20565;-61
2023/11/23 12:18:31;;;;;;;4.25;3.95;;;;;;;;;;5042800;28;20490;-60
2023/11/23 12:21:00;;;;;;;4.50;4.10;;;;;;;;;;5042571;28;20053;-62
2023/11/23 12:23:28;;;;;;;5.00;3.42;;;;;;;;;;5036024;28;20135;-60
2023/11/23 12:25:57;;;;;;;3.58;3.28;;;;;;;;;;5048455;28;20494;-59
2023/11/23 12:28:26;;;;;;;4.07;3.78;;;;;;;;;;5033225;28;20456;-60
2023/11/23 12:30:55;;;;;;;4.25;3.85;;;;;;;;;;5047492;28;20037;-58
2023/11/23 12:33:25;;;;;;;3.97;3.65;;;;;;;;;;5046162;28;20123;-58
2023/11/23 12:35:53;;;;;;;4.10;3.70;;;;;;;;;;5048181;28;20057;-59
2023/11/23 12:38:21;;;;;;;3.88;3.53;;;;;;;;;;5048405;28;20359;-59
2023/11/23 12:40:51;;;;;;;4.20;3.80;;;;;;;;;;5048306;28;20406;-60
2023/11/23 12:43:22;;;;;;;6.00;3.67;;;;;;;;;;5032416;28;20111;-59
2023/11/23 12:45:51;;;;;;;3.53;3.22;;;;;;;;;;5041877;28;20496;-61
2023/11/23 12:48:19;;;;;;;4.18;3.78;;;;;;;;;;5041094;28;20049;-61
2023/11/23 12:50:51;;;;;;;5.55;3.85;;;;;;;;;;5048424;28;20546;-60
2023/11/23 12:53:20;;;;;;;5.45;3.50;;;;;;;;;;5043656;28;20130;-61
2023/11/23 12:55:48;;;;;;;4.05;3.50;;;;;;;;;;5046969;28;20163;-61
2023/11/23 12:58:19;;;;;;;3.80;3.50;;;;;;;;;;5043143;28;20052;-64
2023/11/23 13:00:47;;;;;;;2.92;2.72;;;;;;;;;;5039896;28;20049;-59
2023/11/23 13:03:16;;;;;;;4.35;3.95;;;;;;;;;;5036944;28;20063;-59
2023/11/23 13:05:46;;;;;;;4.07;3.60;;;;;;;;;;5037531;28;20059;-60
2023/11/23 13:08:16;;;;;;;4.20;3.80;;;;;;;;;;5036921;28;20130;-59
2023/11/23 13:10:44;;;;;;;3.90;3.47;;;;;;;;;;5043687;28;20063;-59
2023/11/23 13:13:13;;;;;;;3.90;3.60;;;;;;;;;;5040333;28;20064;-59
2023/11/23 13:15:40;;;;;;;3.47;3.17;;;;;;;;;;5042715;28;20064;-63
2023/11/23 13:18:09;;;;;;;3.85;3.55;;;;;;;;;;5045076;28;20064;-60
2023/11/23 13:20:37;;;;;;;3.72;3.42;;;;;;;;;;5045040;28;20053;-60
2023/11/23 13:23:06;;;;;;;4.68;4.28;;;;;;;;;;5043387;28;20051;-59
2023/11/23 13:25:36;;;;;;;3.90;3.50;;;;;;;;;;5042742;28;20404;-59
2023/11/23 13:28:05;;;;;;;3.90;3.60;;;;;;;;;;5042702;28;20052;-61
2023/11/23 13:30:33;;;;;;;4.00;3.63;;;;;;;;;;5034262;28;20089;-61
2023/11/23 13:33:12;;;;;;;4.80;4.38;;;;;;;;;;5039888;28;20061;-60
2023/11/23 13:35:41;;;;;;;4.40;4.00;;;;;;;;;;5045861;28;20068;-60
2023/11/23 13:38:10;;;;;;;4.55;3.95;;;;;;;;;;5034158;28;20067;-59
2023/11/23 13:40:40;;;;;;;4.32;3.92;;;;;;;;;;5044867;28;20053;-60
2023/11/23 13:43:09;;;;;;;4.35;3.72;;;;;;;;;;5042793;28;20494;-60
2023/11/23 13:45:38;;;;;;;4.10;3.80;;;;;;;;;;5035577;28;20144;-61
2023/11/23 13:48:07;;;;;;;4.50;4.10;;;;;;;;;;5039131;28;20040;-59
2023/11/23 13:50:41;;;;;;;3.95;3.63;;;;;;;;;;5043488;28;20136;-59
2023/11/23 13:53:11;;;;;;;4.68;4.28;;;;;;;;;;5039270;28;20124;-60
2023/11/23 13:55:40;;;;;;;4.32;4.00;;;;;;;;;;5044535;28;20045;-60
2023/11/23 13:58:09;;;;;;;5.70;4.05;;;;;;;;;;5040490;28;20045;-60
2023/11/23 14:00:37;;;;;;;4.15;3.75;;;;;;;;;;5041467;28;20079;-60
2023/11/23 14:03:06;;;;;;;4.45;4.05;;;;;;;;;;5041954;28;20044;-60
2023/11/23 14:05:34;;;;;;;4.60;4.20;;;;;;;;;;5044244;28;20068;-61
2023/11/23 14:08:04;;;;;;;4.22;3.83;;;;;;;;;;5040546;28;20052;-60
2023/11/23 14:10:33;;;;;;;4.50;4.10;;;;;;;;;;5045815;28;20052;-60
2023/11/23 14:13:03;;;;;;;3.83;3.53;;;;;;;;;;5045152;28;20041;-60
2023/11/23 14:15:33;;;;;;;4.30;3.90;;;;;;;;;;5043105;28;20079;-60
2023/11/23 14:18:03;;;;;;;4.15;3.75;;;;;;;;;;5038587;28;20046;-60
2023/11/23 14:20:32;;;;;;;4.57;4.18;;;;;;;;;;5045985;28;20446;-60
2023/11/23 14:23:00;;;;;;;3.83;3.50;;;;;;;;;;5047254;28;20484;-61
2023/11/23 14:25:28;;;;;;;4.28;3.88;;;;;;;;;;5039529;28;20074;-59
2023/11/23 14:27:58;;;;;;;3.80;3.50;;;;;;;;;;5040839;28;20044;-59
2023/11/23 14:30:28;;;;;;;4.00;3.70;;;;;;;;;;5045730;28;20056;-61
2023/11/23 14:32:57;;;;;;;4.18;3.88;;;;;;;;;;5042803;28;20460;-60
2023/11/23 14:35:26;;;;;;;4.20;3.80;;;;;;;;;;5044843;28;20482;-60
2023/11/23 14:37:55;;;;;;;4.18;3.78;;;;;;;;;;5038593;28;20048;-62
2023/11/23 14:40:23;;;;;;;4.10;3.67;;;;;;;;;;5044182;28;20067;-60
2023/11/23 14:42:52;;;;;;;4.20;3.80;;;;;;;;;;5035039;28;20111;-61
2023/11/23 14:45:24;;;;;;;4.10;3.80;;;;;;;;;;5044735;28;20472;-63
2023/11/23 14:47:59;;;;;;;4.78;4.00;;;;;;;;;;5042780;28;20049;-61
2023/11/23 14:50:29;;;;;;;4.70;3.78;;;;;;;;;;5046124;28;20057;-60
2023/11/23 14:52:58;;;;;;;4.10;3.70;;;;;;;;;;5040393;28;20060;-62
2023/11/23 14:55:27;;;;;;;4.07;3.78;;;;;;;;;;5037034;28;20080;-61